sensor_id;sensor_type;location;lat;lon;timestamp;temperature;humidity
22290;DHT22;11313;50.116;8.424;2022-09-11T18:40:52;25.10;53.50
22290;DHT22;11313;50.116;8.424;2022-09-11T18:43:18;25.10;53.60
22290;DHT22;11313;50.116;8.424;2022-09-11T18:45:44;25.10;53.60
22290;DHT22;11313;50.116;8.424;2022-09-11T18:48:09;25.10;53.50
22290;DHT22;11313;50.116;8.424;2022-09-11T18:50:35;25.10;53.50
22290;DHT22;11313;50.116;8.424;2022-09-11T18:53:01;25.10;53.50
22290;DHT22;11313;50.116;8.424;2022-09-11T18:55:27;25.10;53.50
22290;DHT22;11313;50.116;8.424;2022-09-11T18:57:53;25.10;53.50
22290;DHT22;11313;50.116;8.424;2022-09-11T19:00:18;25.00;53.50
22290;DHT22;11313;50.116;8.424;2022-09-11T19:02:45;25.10;53.50
22290;DHT22;11313;50.116;8.424;2022-09-11T19:05:12;25.10;53.50
22290;DHT22;11313;50.116;8.424;2022-09-11T19:07:40;25.10;53.50
22290;DHT22;11313;50.116;8.424;2022-09-11T19:10:06;25.00;53.40
22290;DHT22;11313;50.116;8.424;2022-09-11T19:12:32;25.00;53.40
22290;DHT22;11313;50.116;8.424;2022-09-11T19:14:57;25.10;53.40
22290;DHT22;11313;50.116;8.424;2022-09-11T19:17:23;25.00;53.40
22290;DHT22;11313;50.116;8.424;2022-09-11T19:19:49;25.10;53.40
22290;DHT22;11313;50.116;8.424;2022-09-11T19:22:16;25.10;53.40
22290;DHT22;11313;50.116;8.424;2022-09-11T19:24:41;25.10;53.40
22290;DHT22;11313;50.116;8.424;2022-09-11T19:27:07;25.20;53.40
22290;DHT22;11313;50.116;8.424;2022-09-11T19:29:33;25.10;53.40
22290;DHT22;11313;50.116;8.424;2022-09-11T19:31:58;25.10;53.40
22290;DHT22;11313;50.116;8.424;2022-09-11T19:34:25;25.10;53.40
22290;DHT22;11313;50.116;8.424;2022-09-11T19:36:51;25.10;53.40
22290;DHT22;11313;50.116;8.424;2022-09-11T19:39:17;25.10;53.40
22290;DHT22;11313;50.116;8.424;2022-09-11T19:41:42;25.10;53.40
22290;DHT22;11313;50.116;8.424;2022-09-11T19:44:11;25.10;53.40
22290;DHT22;11313;50.116;8.424;2022-09-11T19:46:38;25.10;53.40
22290;DHT22;11313;50.116;8.424;2022-09-11T19:49:04;25.10;53.40
22290;DHT22;11313;50.116;8.424;2022-09-11T19:51:36;25.10;53.40
22290;DHT22;11313;50.116;8.424;2022-09-11T19:54:03;25.10;53.40
22290;DHT22;11313;50.116;8.424;2022-09-11T19:56:31;25.00;53.40
22290;DHT22;11313;50.116;8.424;2022-09-11T19:58:58;25.10;53.40
22290;DHT22;11313;50.116;8.424;2022-09-11T20:01:25;25.10;53.40
22290;DHT22;11313;50.116;8.424;2022-09-11T20:03:52;24.90;53.30
22290;DHT22;11313;50.116;8.424;2022-09-11T20:06:20;25.10;53.40
22290;DHT22;11313;50.116;8.424;2022-09-11T20:08:48;25.10;53.40
22290;DHT22;11313;50.116;8.424;2022-09-11T20:11:16;25.00;53.30
22290;DHT22;11313;50.116;8.424;2022-09-11T20:13:43;25.00;53.30
22290;DHT22;11313;50.116;8.424;2022-09-11T20:16:14;25.10;53.40
22290;DHT22;11313;50.116;8.424;2022-09-11T20:18:41;25.10;53.40
22290;DHT22;11313;50.116;8.424;2022-09-11T20:21:10;25.10;53.40
22290;DHT22;11313;50.116;8.424;2022-09-11T20:23:36;25.10;53.40
22290;DHT22;11313;50.116;8.424;2022-09-11T20:26:10;25.00;53.30
22290;DHT22;11313;50.116;8.424;2022-09-11T20:28:36;25.10;53.40
22290;DHT22;11313;50.116;8.424;2022-09-11T20:31:16;25.10;53.40
22290;DHT22;11313;50.116;8.424;2022-09-11T20:33:43;25.00;53.30
22290;DHT22;11313;50.116;8.424;2022-09-11T20:36:09;25.10;53.30
22290;DHT22;11313;50.116;8.424;2022-09-11T20:38:35;25.10;53.40
22290;DHT22;11313;50.116;8.424;2022-09-11T20:41:12;25.10;53.30
22290;DHT22;11313;50.116;8.424;2022-09-11T20:43:38;25.00;53.30
22290;DHT22;11313;50.116;8.424;2022-09-11T20:46:04;25.10;53.30
22290;DHT22;11313;50.116;8.424;2022-09-11T20:48:29;25.00;53.30
22290;DHT22;11313;50.116;8.424;2022-09-11T20:51:06;25.10;53.30
22290;DHT22;11313;50.116;8.424;2022-09-11T20:53:32;25.00;53.30
22290;DHT22;11313;50.116;8.424;2022-09-11T20:56:02;25.10;53.30
22290;DHT22;11313;50.116;8.424;2022-09-11T20:58:28;25.10;53.30
22290;DHT22;11313;50.116;8.424;2022-09-11T21:00:56;24.90;53.20
22290;DHT22;11313;50.116;8.424;2022-09-11T21:03:22;25.00;53.30
22290;DHT22;11313;50.116;8.424;2022-09-11T21:05:48;25.10;53.30
22290;DHT22;11313;50.116;8.424;2022-09-11T21:08:13;25.00;53.20
22290;DHT22;11313;50.116;8.424;2022-09-11T21:10:39;25.00;53.20
22290;DHT22;11313;50.116;8.424;2022-09-11T21:13:04;25.00;53.20
22290;DHT22;11313;50.116;8.424;2022-09-11T21:15:30;25.00;53.20
22290;DHT22;11313;50.116;8.424;2022-09-11T21:17:55;25.00;53.20
22290;DHT22;11313;50.116;8.424;2022-09-11T21:20:21;25.00;53.20
22290;DHT22;11313;50.116;8.424;2022-09-11T21:22:47;25.00;53.20
22290;DHT22;11313;50.116;8.424;2022-09-11T21:25:12;25.10;53.20
22290;DHT22;11313;50.116;8.424;2022-09-11T21:27:38;25.10;53.20
22290;DHT22;11313;50.116;8.424;2022-09-11T21:30:04;25.10;53.20
22290;DHT22;11313;50.116;8.424;2022-09-11T21:32:29;25.00;53.20
22290;DHT22;11313;50.116;8.424;2022-09-11T21:34:55;25.00;53.20
22290;DHT22;11313;50.116;8.424;2022-09-11T21:37:21;25.00;53.10
22290;DHT22;11313;50.116;8.424;2022-09-11T21:39:46;25.00;53.10
22290;DHT22;11313;50.116;8.424;2022-09-11T21:42:12;25.00;53.10
22290;DHT22;11313;50.116;8.424;2022-09-11T21:44:37;24.80;53.00
22290;DHT22;11313;50.116;8.424;2022-09-11T21:47:03;25.10;53.10
22290;DHT22;11313;50.116;8.424;2022-09-11T21:49:29;25.00;53.10
22290;DHT22;11313;50.116;8.424;2022-09-11T21:51:54;25.10;53.10
22290;DHT22;11313;50.116;8.424;2022-09-11T21:54:20;25.00;53.10
22290;DHT22;11313;50.116;8.424;2022-09-11T21:56:45;25.00;53.10
22290;DHT22;11313;50.116;8.424;2022-09-11T21:59:11;25.00;53.10
22290;DHT22;11313;50.116;8.424;2022-09-11T22:01:36;25.00;53.00
22290;DHT22;11313;50.116;8.424;2022-09-11T22:04:02;25.00;53.10
22290;DHT22;11313;50.116;8.424;2022-09-11T22:06:28;25.00;53.00
22290;DHT22;11313;50.116;8.424;2022-09-11T22:08:54;25.00;53.00
22290;DHT22;11313;50.116;8.424;2022-09-11T22:11:20;24.90;53.00
22290;DHT22;11313;50.116;8.424;2022-09-11T22:13:46;25.00;53.00
22290;DHT22;11313;50.116;8.424;2022-09-11T22:16:17;25.00;53.00
22290;DHT22;11313;50.116;8.424;2022-09-11T22:18:47;25.00;53.00
22290;DHT22;11313;50.116;8.424;2022-09-11T22:21:13;25.00;53.00
22290;DHT22;11313;50.116;8.424;2022-09-11T22:23:38;25.00;53.00
22290;DHT22;11313;50.116;8.424;2022-09-11T22:26:07;25.00;53.00
22290;DHT22;11313;50.116;8.424;2022-09-11T22:28:34;25.00;53.00
22290;DHT22;11313;50.116;8.424;2022-09-11T22:31:00;25.00;53.00
22290;DHT22;11313;50.116;8.424;2022-09-11T22:33:28;24.90;53.00
22290;DHT22;11313;50.116;8.424;2022-09-11T22:35:54;25.00;53.00
22290;DHT22;11313;50.116;8.424;2022-09-11T22:38:19;24.90;52.90
22290;DHT22;11313;50.116;8.424;2022-09-11T22:40:51;25.00;53.00
22290;DHT22;11313;50.116;8.424;2022-09-11T22:43:17;25.00;53.00
22290;DHT22;11313;50.116;8.424;2022-09-11T22:45:48;25.00;52.90
22290;DHT22;11313;50.116;8.424;2022-09-11T22:48:14;25.00;52.90
22290;DHT22;11313;50.116;8.424;2022-09-11T22:50:40;25.00;52.90
22290;DHT22;11313;50.116;8.424;2022-09-11T22:53:06;25.00;52.90
22290;DHT22;11313;50.116;8.424;2022-09-11T22:55:32;25.00;52.90
22290;DHT22;11313;50.116;8.424;2022-09-11T22:57:57;24.90;52.90
22290;DHT22;11313;50.116;8.424;2022-09-11T23:00:23;24.90;52.90
22290;DHT22;11313;50.116;8.424;2022-09-11T23:02:48;25.00;52.90
22290;DHT22;11313;50.116;8.424;2022-09-11T23:05:14;24.90;52.80
22290;DHT22;11313;50.116;8.424;2022-09-11T23:07:58;25.00;52.90
22290;DHT22;11313;50.116;8.424;2022-09-11T23:10:23;25.00;52.90
22290;DHT22;11313;50.116;8.424;2022-09-11T23:12:50;25.00;52.90
22290;DHT22;11313;50.116;8.424;2022-09-11T23:15:17;25.00;52.90
22290;DHT22;11313;50.116;8.424;2022-09-11T23:17:42;24.90;52.90
22290;DHT22;11313;50.116;8.424;2022-09-11T23:20:08;24.90;53.50
22290;DHT22;11313;50.116;8.424;2022-09-11T23:22:34;24.90;52.80
22290;DHT22;11313;50.116;8.424;2022-09-11T23:25:00;25.00;52.90
22290;DHT22;11313;50.116;8.424;2022-09-11T23:27:25;25.00;52.90
22290;DHT22;11313;50.116;8.424;2022-09-11T23:29:51;25.10;52.90
22290;DHT22;11313;50.116;8.424;2022-09-11T23:32:16;24.90;52.80
22290;DHT22;11313;50.116;8.424;2022-09-11T23:34:42;24.90;52.80
22290;DHT22;11313;50.116;8.424;2022-09-11T23:37:08;24.90;52.80
22290;DHT22;11313;50.116;8.424;2022-09-11T23:39:33;24.90;52.80
22290;DHT22;11313;50.116;8.424;2022-09-11T23:41:59;24.90;52.80
22290;DHT22;11313;50.116;8.424;2022-09-11T23:44:24;25.00;52.80
22290;DHT22;11313;50.116;8.424;2022-09-11T23:46:53;25.00;52.80
22290;DHT22;11313;50.116;8.424;2022-09-11T23:49:18;24.90;52.70
22290;DHT22;11313;50.116;8.424;2022-09-11T23:51:44;24.90;52.70
22290;DHT22;11313;50.116;8.424;2022-09-11T23:54:13;24.90;52.70
22290;DHT22;11313;50.116;8.424;2022-09-11T23:56:38;24.90;52.70
22290;DHT22;11313;50.116;8.424;2022-09-11T23:59:04;24.90;52.70
